Time;durP1;ratioP1;P1;durP2;ratioP2;P2;SDS_P1;SDS_P2;PMS_P1;PMS_P2;Temp;Humidity;BMP_temperature;BMP_pressure;BME280_temperature;BME280_humidity;BME280_pressure;Samples;Min_cycle;Max_cycle;Signal;HPM_P1;HPM_P2
2022/07/01 00:01:32;;;;;;;2.35;0.60;;;;;;;;;;5104692;28;20202;-77
2022/07/01 00:03:59;;;;;;;4.00;0.82;;;;;;;;;;5113809;27;20047;-77
2022/07/01 00:06:25;;;;;;;2.13;0.68;;;;;;;;;;5101188;28;20521;-77
2022/07/01 00:08:51;;;;;;;4.35;0.90;;;;;;;;;;5106852;27;20034;-77
2022/07/01 00:11:17;;;;;;;4.43;1.05;;;;;;;;;;5097320;28;20024;-77
2022/07/01 00:13:43;;;;;;;4.90;1.20;;;;;;;;;;5102327;28;20107;-77
2022/07/01 00:16:09;;;;;;;9.30;1.38;;;;;;;;;;5095903;28;20036;-77
2022/07/01 00:18:35;;;;;;;4.65;0.85;;;;;;;;;;5104156;28;20408;-77
2022/07/01 00:21:01;;;;;;;5.20;1.00;;;;;;;;;;5105866;27;20530;-77
2022/07/01 00:23:28;;;;;;;6.05;0.95;;;;;;;;;;5109008;28;20110;-77
2022/07/01 00:25:54;;;;;;;2.90;0.82;;;;;;;;;;5098478;28;20068;-77
2022/07/01 00:28:20;;;;;;;3.78;0.60;;;;;;;;;;5097906;28;20032;-77
2022/07/01 00:30:46;;;;;;;9.73;1.45;;;;;;;;;;5100274;27;20024;-77
2022/07/01 00:33:12;;;;;;;3.72;1.15;;;;;;;;;;5091027;28;20024;-76
2022/07/01 00:35:38;;;;;;;4.93;0.70;;;;;;;;;;5106670;27;20526;-77
2022/07/01 00:38:04;;;;;;;5.40;0.65;;;;;;;;;;5108607;28;20102;-77
2022/07/01 00:40:30;;;;;;;3.83;0.75;;;;;;;;;;5100094;28;20134;-77
2022/07/01 00:42:57;;;;;;;2.97;1.00;;;;;;;;;;5107048;28;20027;-77
2022/07/01 00:45:23;;;;;;;5.78;1.05;;;;;;;;;;5109245;27;20050;-77
2022/07/01 00:47:50;;;;;;;7.05;1.15;;;;;;;;;;5096707;28;20024;-77
2022/07/01 00:50:16;;;;;;;5.95;0.93;;;;;;;;;;5098640;28;20038;-77
2022/07/01 00:52:43;;;;;;;5.53;1.00;;;;;;;;;;5099556;28;20062;-77
2022/07/01 00:55:11;;;;;;;3.75;0.95;;;;;;;;;;5102461;28;20063;-77
2022/07/01 00:57:38;;;;;;;3.63;0.73;;;;;;;;;;5102005;28;20049;-77
2022/07/01 01:00:07;;;;;;;4.72;0.77;;;;;;;;;;5106109;28;20051;-77
2022/07/01 01:02:33;;;;;;;3.45;1.10;;;;;;;;;;5101711;28;20020;-77
2022/07/01 01:04:59;;;;;;;4.47;0.75;;;;;;;;;;5102789;28;20143;-77
2022/07/01 01:07:25;;;;;;;2.15;0.60;;;;;;;;;;5094862;28;20089;-77
2022/07/01 01:09:51;;;;;;;6.05;0.90;;;;;;;;;;5103781;28;20047;-77
2022/07/01 01:12:17;;;;;;;2.60;0.80;;;;;;;;;;5097358;28;20030;-76
2022/07/01 01:14:44;;;;;;;4.50;1.00;;;;;;;;;;5101273;28;20031;-77
2022/07/01 01:17:12;;;;;;;5.10;0.70;;;;;;;;;;5100463;28;20036;-77
2022/07/01 01:19:38;;;;;;;3.38;1.15;;;;;;;;;;5091765;28;20027;-77
2022/07/01 01:22:04;;;;;;;2.88;0.90;;;;;;;;;;5100915;27;20036;-77
2022/07/01 01:24:30;;;;;;;3.65;0.82;;;;;;;;;;5101640;28;20032;-77
2022/07/01 01:26:56;;;;;;;2.70;0.73;;;;;;;;;;5097499;27;20115;-76
2022/07/01 01:29:22;;;;;;;3.33;0.60;;;;;;;;;;5100092;28;20117;-77
2022/07/01 01:31:48;;;;;;;3.35;0.50;;;;;;;;;;5096477;28;20070;-77
2022/07/01 01:34:14;;;;;;;3.35;0.52;;;;;;;;;;5099266;28;20354;-77
2022/07/01 01:36:40;;;;;;;2.63;0.77;;;;;;;;;;5092142;28;20051;-76
2022/07/01 01:41:32;;;;;;;3.22;0.82;;;;;;;;;;5107402;27;20032;-76
2022/07/01 01:43:58;;;;;;;3.70;0.85;;;;;;;;;;5099914;27;20087;-77
2022/07/01 01:46:25;;;;;;;4.97;0.80;;;;;;;;;;5112389;27;20035;-77
2022/07/01 01:48:52;;;;;;;3.25;0.80;;;;;;;;;;5101064;28;20027;-77
2022/07/01 01:51:19;;;;;;;3.72;0.88;;;;;;;;;;5096946;28;20035;-77
2022/07/01 01:53:45;;;;;;;4.97;1.48;;;;;;;;;;5095147;27;20386;-77
2022/07/01 01:56:11;;;;;;;2.25;0.65;;;;;;;;;;5100349;28;20457;-77
2022/07/01 01:58:42;;;;;;;2.47;0.80;;;;;;;;;;5095935;28;20032;-77
2022/07/01 02:01:08;;;;;;;7.37;1.37;;;;;;;;;;5095495;27;20497;-77
2022/07/01 02:03:34;;;;;;;4.88;1.20;;;;;;;;;;5102942;28;20031;-77
2022/07/01 02:06:00;;;;;;;5.35;0.80;;;;;;;;;;5102920;27;20032;-76
2022/07/01 02:08:26;;;;;;;4.53;0.95;;;;;;;;;;5095344;28;20689;-77
2022/07/01 02:10:52;;;;;;;4.72;1.17;;;;;;;;;;5103264;27;20430;-77
2022/07/01 02:13:18;;;;;;;1.90;0.65;;;;;;;;;;5098106;28;20486;-77
2022/07/01 02:15:44;;;;;;;2.60;0.68;;;;;;;;;;5090251;28;20036;-77
2022/07/01 02:18:10;;;;;;;3.63;0.80;;;;;;;;;;5095452;28;20028;-77
2022/07/01 02:20:36;;;;;;;2.40;0.70;;;;;;;;;;5098424;28;20358;-77
2022/07/01 02:23:02;;;;;;;2.13;0.60;;;;;;;;;;5099417;28;20048;-77
2022/07/01 02:25:29;;;;;;;5.22;0.40;;;;;;;;;;5099965;28;20032;-77
2022/07/01 02:27:56;;;;;;;4.55;0.80;;;;;;;;;;5096747;28;20063;-77
2022/07/01 02:30:22;;;;;;;1.40;0.50;;;;;;;;;;5095637;28;20749;-76
2022/07/01 02:32:48;;;;;;;1.45;0.50;;;;;;;;;;5098414;28;20024;-77
2022/07/01 02:35:14;;;;;;;1.85;0.40;;;;;;;;;;5107266;28;20642;-77
2022/07/01 02:37:40;;;;;;;2.13;0.45;;;;;;;;;;5100806;28;20054;-77
2022/07/01 02:40:06;;;;;;;2.28;0.60;;;;;;;;;;5097631;28;20038;-77
2022/07/01 02:42:36;;;;;;;2.40;0.40;;;;;;;;;;5101882;28;20897;-77
2022/07/01 02:45:03;;;;;;;1.55;0.50;;;;;;;;;;5095847;28;20057;-76
2022/07/01 02:47:37;;;;;;;1.90;0.43;;;;;;;;;;5105493;27;20568;-77
2022/07/01 02:50:04;;;;;;;1.58;0.40;;;;;;;;;;5105953;27;20028;-77
2022/07/01 02:52:30;;;;;;;2.47;0.70;;;;;;;;;;5100267;28;20043;-77
2022/07/01 02:54:56;;;;;;;2.53;0.55;;;;;;;;;;5108839;27;20031;-77
2022/07/01 02:57:23;;;;;;;4.90;0.80;;;;;;;;;;5103901;27;20031;-77
2022/07/01 02:59:50;;;;;;;2.80;0.60;;;;;;;;;;5104489;27;20433;-77
2022/07/01 03:02:17;;;;;;;2.55;0.50;;;;;;;;;;5096842;27;20055;-77
2022/07/01 03:04:44;;;;;;;1.80;0.60;;;;;;;;;;5100165;28;20032;-77
2022/07/01 03:07:10;;;;;;;1.92;0.50;;;;;;;;;;5104306;28;20089;-77
2022/07/01 03:09:36;;;;;;;3.15;0.70;;;;;;;;;;5104534;28;20028;-77
2022/07/01 03:12:24;;;;;;;3.90;0.60;;;;;;;;;;5100639;28;20110;-77
2022/07/01 03:14:48;;;;;;;1.35;0.40;;;;;;;;;;5104311;27;20035;-77
2022/07/01 03:17:14;;;;;;;3.42;0.70;;;;;;;;;;5104593;28;20474;-77
2022/07/01 03:19:40;;;;;;;3.85;0.70;;;;;;;;;;5107088;27;20042;-77
2022/07/01 03:22:06;;;;;;;6.03;0.90;;;;;;;;;;5106849;28;20035;-77
2022/07/01 03:24:32;;;;;;;5.22;0.80;;;;;;;;;;5099779;28;20032;-77
2022/07/01 03:26:59;;;;;;;4.45;1.08;;;;;;;;;;5102060;27;20032;-77
2022/07/01 03:29:25;;;;;;;4.28;1.00;;;;;;;;;;5103124;28;20035;-77
2022/07/01 03:31:51;;;;;;;6.43;1.30;;;;;;;;;;5101302;28;20028;-77
2022/07/01 03:34:17;;;;;;;5.43;0.90;;;;;;;;;;5104091;28;20407;-77
2022/07/01 03:36:43;;;;;;;4.25;1.17;;;;;;;;;;5108395;27;20060;-77
2022/07/01 03:39:09;;;;;;;5.45;1.20;;;;;;;;;;5100620;28;20040;-77
2022/07/01 03:41:35;;;;;;;6.93;1.08;;;;;;;;;;5102331;28;20052;-77
2022/07/01 03:44:01;;;;;;;5.63;0.90;;;;;;;;;;5103045;28;20085;-77
2022/07/01 03:46:31;;;;;;;7.35;2.33;;;;;;;;;;5103693;28;20035;-76
2022/07/01 03:48:57;;;;;;;8.18;3.03;;;;;;;;;;5097786;28;20023;-77
2022/07/01 03:51:23;;;;;;;5.40;3.22;;;;;;;;;;5101120;28;20027;-77
2022/07/01 03:56:34;;;;;;;3.00;0.95;;;;;;;;;;5100381;27;20042;-77
2022/07/01 03:59:00;;;;;;;3.70;0.98;;;;;;;;;;5099016;28;20035;-76
2022/07/01 04:01:26;;;;;;;2.55;0.60;;;;;;;;;;5102414;27;20355;-76
2022/07/01 04:03:52;;;;;;;3.42;0.90;;;;;;;;;;5100388;28;20036;-76
2022/07/01 04:06:18;;;;;;;5.57;1.02;;;;;;;;;;5104209;28;20582;-77
2022/07/01 04:08:45;;;;;;;3.15;0.90;;;;;;;;;;5101258;28;20032;-76
2022/07/01 04:11:11;;;;;;;1.63;0.60;;;;;;;;;;5105687;28;20028;-76
2022/07/01 04:13:37;;;;;;;2.90;0.80;;;;;;;;;;5096900;27;20036;-77
2022/07/01 04:16:03;;;;;;;2.78;1.55;;;;;;;;;;5107051;27;20032;-76
2022/07/01 04:18:30;;;;;;;5.00;2.13;;;;;;;;;;5090795;28;20036;-76
2022/07/01 04:23:41;;;;;;;7.80;1.50;;;;;;;;;;5100644;27;20090;-76
2022/07/01 04:26:07;;;;;;;5.72;1.38;;;;;;;;;;5106479;28;20544;-77
2022/07/01 04:28:33;;;;;;;2.97;1.00;;;;;;;;;;5094364;28;20385;-77
2022/07/01 04:30:59;;;;;;;5.30;1.45;;;;;;;;;;5100935;28;20032;-77
2022/07/01 04:33:25;;;;;;;2.97;0.98;;;;;;;;;;5100500;28;20734;-77
2022/07/01 04:35:51;;;;;;;5.05;1.50;;;;;;;;;;5106099;28;20073;-76
2022/07/01 04:38:18;;;;;;;4.85;1.20;;;;;;;;;;5093974;27;20035;-77
2022/07/01 04:41:58;;;;;;;3.05;1.20;;;;;;;;;;5106216;27;20280;-76
2022/07/01 04:43:30;;;;;;;3.70;1.23;;;;;;;;;;5100546;28;20770;-77
2022/07/01 04:45:56;;;;;;;4.82;1.00;;;;;;;;;;5103422;28;20123;-76
2022/07/01 04:48:22;;;;;;;4.57;1.20;;;;;;;;;;5101066;28;20636;-76
2022/07/01 04:50:48;;;;;;;4.30;1.77;;;;;;;;;;5095056;28;20048;-77
2022/07/01 04:53:14;;;;;;;3.67;0.70;;;;;;;;;;5100041;27;20062;-77
2022/07/01 04:55:40;;;;;;;2.35;0.90;;;;;;;;;;5100578;28;20043;-76
2022/07/01 04:58:06;;;;;;;2.90;0.60;;;;;;;;;;5103000;28;20066;-77
2022/07/01 05:00:32;;;;;;;6.07;2.17;;;;;;;;;;5104742;27;20039;-76
2022/07/01 05:02:58;;;;;;;4.07;2.20;;;;;;;;;;5094809;28;20462;-76
2022/07/01 05:05:25;;;;;;;4.75;1.10;;;;;;;;;;5102502;28;20412;-76
2022/07/01 05:07:51;;;;;;;3.33;0.70;;;;;;;;;;5106238;28;20035;-76
2022/07/01 05:10:17;;;;;;;2.78;0.70;;;;;;;;;;5106465;28;20051;-76
2022/07/01 05:12:43;;;;;;;1.95;0.50;;;;;;;;;;5097901;28;20085;-76
2022/07/01 05:15:09;;;;;;;2.00;0.65;;;;;;;;;;5106629;27;20035;-77
2022/07/01 05:23:04;;;;;;;1.67;0.45;;;;;;;;;;5097105;28;20418;-76
2022/07/01 05:25:30;;;;;;;2.50;0.70;;;;;;;;;;5093504;28;20482;-77
2022/07/01 05:27:56;;;;;;;7.65;1.80;;;;;;;;;;5097782;28;20035;-77
2022/07/01 05:30:22;;;;;;;2.67;0.98;;;;;;;;;;5095793;28;20035;-77
2022/07/01 05:32:48;;;;;;;5.43;1.55;;;;;;;;;;5092800;28;20551;-76
2022/07/01 05:35:15;;;;;;;5.90;1.48;;;;;;;;;;5095976;27;20064;-77
2022/07/01 05:37:41;;;;;;;3.40;1.40;;;;;;;;;;5094097;28;20082;-77
2022/07/01 05:40:07;;;;;;;4.15;1.38;;;;;;;;;;5105089;28;20544;-77
2022/07/01 05:42:33;;;;;;;5.55;1.50;;;;;;;;;;5095288;28;20844;-77
2022/07/01 05:45:00;;;;;;;2.63;1.25;;;;;;;;;;5106726;27;20051;-77
2022/07/01 05:47:26;;;;;;;5.18;1.08;;;;;;;;;;5102151;28;20763;-77
2022/07/01 05:49:52;;;;;;;2.25;0.90;;;;;;;;;;5098105;28;20093;-78
2022/07/01 05:52:18;;;;;;;4.40;1.30;;;;;;;;;;5097456;27;20111;-78
2022/07/01 05:54:44;;;;;;;4.53;1.20;;;;;;;;;;5104560;28;20024;-78
2022/07/01 05:57:10;;;;;;;4.47;1.65;;;;;;;;;;5098733;28;20042;-78
2022/07/01 05:59:37;;;;;;;5.32;1.10;;;;;;;;;;5102831;28;20031;-78
2022/07/01 06:02:03;;;;;;;7.00;1.55;;;;;;;;;;5093669;28;20032;-78
2022/07/01 06:04:29;;;;;;;7.88;1.92;;;;;;;;;;5103791;28;20032;-78
2022/07/01 06:06:55;;;;;;;6.32;1.88;;;;;;;;;;5095266;28;20028;-78
2022/07/01 06:09:21;;;;;;;6.60;1.80;;;;;;;;;;5099138;27;20478;-78
2022/07/01 06:11:47;;;;;;;5.90;1.00;;;;;;;;;;5105243;28;20032;-78
2022/07/01 06:14:13;;;;;;;3.55;0.77;;;;;;;;;;5101091;28;20794;-78
2022/07/01 06:16:39;;;;;;;3.80;1.33;;;;;;;;;;5098678;27;20522;-78
2022/07/01 06:19:06;;;;;;;4.50;1.20;;;;;;;;;;5098454;28;20027;-78
2022/07/01 06:21:32;;;;;;;8.32;1.30;;;;;;;;;;5109099;27;20066;-78
2022/07/01 06:23:58;;;;;;;6.32;1.45;;;;;;;;;;5098638;28;20036;-78
2022/07/01 06:26:24;;;;;;;5.63;1.45;;;;;;;;;;5105175;28;20039;-77
2022/07/01 06:28:50;;;;;;;8.50;1.83;;;;;;;;;;5100800;28;20050;-78
2022/07/01 06:31:16;;;;;;;10.68;1.40;;;;;;;;;;5112153;28;20059;-78
2022/07/01 06:33:42;;;;;;;6.70;1.42;;;;;;;;;;5102511;28;20038;-78
2022/07/01 06:36:08;;;;;;;4.82;1.27;;;;;;;;;;5106717;28;20501;-78
2022/07/01 06:38:34;;;;;;;4.35;1.40;;;;;;;;;;5091824;28;20028;-78
2022/07/01 06:43:45;;;;;;;5.70;1.40;;;;;;;;;;5098115;28;20035;-78
2022/07/01 06:46:11;;;;;;;7.05;2.10;;;;;;;;;;5108524;28;20044;-78
2022/07/01 06:48:37;;;;;;;4.88;1.55;;;;;;;;;;5107299;28;20068;-78
2022/07/01 06:51:03;;;;;;;4.75;1.45;;;;;;;;;;5102093;28;20031;-78
2022/07/01 06:53:29;;;;;;;4.35;1.23;;;;;;;;;;5093762;28;20035;-78
2022/07/01 06:55:57;;;;;;;7.15;1.42;;;;;;;;;;5099307;28;20114;-78
2022/07/01 06:58:23;;;;;;;4.40;1.20;;;;;;;;;;5096667;28;20032;-78
2022/07/01 07:00:49;;;;;;;6.03;1.88;;;;;;;;;;5094676;28;20105;-78
2022/07/01 07:03:15;;;;;;;8.43;2.00;;;;;;;;;;5102741;28;20580;-78
2022/07/01 07:05:41;;;;;;;5.00;1.55;;;;;;;;;;5103568;28;20040;-78
2022/07/01 07:08:07;;;;;;;5.63;1.90;;;;;;;;;;5101325;28;20035;-78
2022/07/01 07:10:33;;;;;;;3.72;1.17;;;;;;;;;;5095786;28;20035;-78
2022/07/01 07:12:59;;;;;;;5.80;1.13;;;;;;;;;;5099128;28;20568;-76
2022/07/01 07:15:25;;;;;;;5.07;1.20;;;;;;;;;;5094806;28;20055;-76
2022/07/01 07:17:51;;;;;;;5.38;1.00;;;;;;;;;;5105337;28;20063;-76
2022/07/01 07:20:17;;;;;;;4.18;0.80;;;;;;;;;;5093384;28;20091;-76
2022/07/01 07:22:43;;;;;;;4.40;1.40;;;;;;;;;;5112726;28;20114;-76
2022/07/01 07:25:09;;;;;;;5.90;1.10;;;;;;;;;;5096397;28;20553;-76
2022/07/01 07:27:35;;;;;;;4.10;1.00;;;;;;;;;;5098808;28;20525;-78
2022/07/01 07:30:03;;;;;;;2.75;0.60;;;;;;;;;;5097679;28;20027;-78
2022/07/01 07:32:29;;;;;;;5.10;0.70;;;;;;;;;;5103319;28;20022;-76
2022/07/01 07:34:55;;;;;;;3.70;0.90;;;;;;;;;;5101044;28;20023;-76
2022/07/01 07:37:21;;;;;;;8.38;0.95;;;;;;;;;;5105471;27;20092;-76
2022/07/01 07:39:47;;;;;;;4.10;0.65;;;;;;;;;;5102817;27;20452;-77
2022/07/01 07:42:13;;;;;;;5.60;0.60;;;;;;;;;;5112308;27;20070;-76
2022/07/01 07:44:39;;;;;;;5.28;0.85;;;;;;;;;;5100363;28;20032;-76
2022/07/01 07:47:06;;;;;;;3.75;0.50;;;;;;;;;;5102953;27;20043;-76
2022/07/01 07:49:32;;;;;;;4.57;0.70;;;;;;;;;;5104254;27;20032;-76
2022/07/01 07:51:58;;;;;;;1.85;0.50;;;;;;;;;;5099546;27;20035;-76
2022/07/01 07:54:24;;;;;;;6.60;0.70;;;;;;;;;;5099184;27;20028;-76
2022/07/01 07:56:50;;;;;;;7.75;0.70;;;;;;;;;;5101431;27;20032;-78
2022/07/01 07:59:16;;;;;;;3.47;0.52;;;;;;;;;;5111161;27;20039;-78
2022/07/01 08:01:42;;;;;;;3.72;0.80;;;;;;;;;;5108452;27;20207;-78
2022/07/01 08:04:08;;;;;;;3.42;0.80;;;;;;;;;;5107096;27;20031;-78
2022/07/01 08:06:34;;;;;;;4.68;0.60;;;;;;;;;;5102764;27;20038;-78
2022/07/01 08:09:00;;;;;;;1.73;0.73;;;;;;;;;;5110031;27;20066;-78
2022/07/01 08:11:26;;;;;;;4.45;0.77;;;;;;;;;;5102082;27;20060;-76
2022/07/01 08:13:52;;;;;;;2.28;0.60;;;;;;;;;;5108928;27;20550;-76
2022/07/01 08:16:18;;;;;;;1.98;0.60;;;;;;;;;;5103586;27;20080;-76
2022/07/01 08:18:44;;;;;;;1.70;0.65;;;;;;;;;;5109462;27;20028;-76
2022/07/01 08:21:11;;;;;;;3.75;0.82;;;;;;;;;;5100496;27;20397;-76
2022/07/01 08:23:37;;;;;;;6.03;0.80;;;;;;;;;;5110651;27;20553;-76
2022/07/01 08:26:03;;;;;;;2.38;0.60;;;;;;;;;;5108462;27;20170;-76
2022/07/01 08:28:30;;;;;;;7.38;0.75;;;;;;;;;;5099975;27;20032;-76
2022/07/01 08:30:56;;;;;;;2.40;0.68;;;;;;;;;;5099603;27;20028;-76
2022/07/01 08:33:22;;;;;;;5.30;0.90;;;;;;;;;;5108614;27;20038;-76
2022/07/01 08:35:48;;;;;;;2.88;0.68;;;;;;;;;;5103873;27;20926;-76
2022/07/01 08:38:14;;;;;;;2.90;0.50;;;;;;;;;;5097836;27;20043;-76
2022/07/01 08:40:40;;;;;;;3.15;0.50;;;;;;;;;;5104096;27;20038;-76
2022/07/01 08:43:07;;;;;;;4.18;0.70;;;;;;;;;;5103894;27;20029;-76
2022/07/01 08:45:37;;;;;;;4.22;0.90;;;;;;;;;;5098683;27;20024;-76
2022/07/01 08:48:04;;;;;;;6.10;1.05;;;;;;;;;;5101835;27;20066;-76
2022/07/01 08:50:31;;;;;;;4.78;1.40;;;;;;;;;;5110096;27;20419;-76
2022/07/01 08:52:57;;;;;;;3.30;0.90;;;;;;;;;;5101438;27;20031;-78
2022/07/01 08:55:24;;;;;;;3.92;1.08;;;;;;;;;;5103705;27;20077;-78
2022/07/01 08:57:50;;;;;;;5.35;1.15;;;;;;;;;;5105812;27;20035;-76
2022/07/01 09:00:17;;;;;;;4.18;0.55;;;;;;;;;;5105993;27;20047;-76
2022/07/01 09:02:51;;;;;;;3.58;0.80;;;;;;;;;;5105162;27;20032;-76
2022/07/01 09:05:17;;;;;;;7.32;1.08;;;;;;;;;;5097121;27;20036;-76
2022/07/01 09:07:43;;;;;;;4.50;0.70;;;;;;;;;;5103009;27;20039;-77
2022/07/01 09:10:20;;;;;;;2.35;0.73;;;;;;;;;;5108531;27;20170;-76
2022/07/01 09:12:47;;;;;;;3.45;0.55;;;;;;;;;;5096955;27;20032;-76
2022/07/01 09:15:20;;;;;;;5.00;0.80;;;;;;;;;;5108929;27;20035;-76
2022/07/01 09:17:46;;;;;;;8.18;1.10;;;;;;;;;;5097507;27;20468;-76
2022/07/01 09:20:25;;;;;;;4.35;0.68;;;;;;;;;;5110748;27;20035;-76
2022/07/01 09:23:17;;;;;;;3.15;0.85;;;;;;;;;;5104627;27;20654;-77
2022/07/01 09:25:43;;;;;;;;;;;;;;;;;;5105041;27;20141;-76
2022/07/01 09:28:14;;;;;;;6.63;0.90;;;;;;;;;;5098542;27;19916;-76
2022/07/01 09:30:44;;;;;;;3.58;0.80;;;;;;;;;;5100703;27;20122;-77
2022/07/01 09:33:11;;;;;;;6.78;0.80;;;;;;;;;;5100028;27;20099;-77
2022/07/01 09:35:37;;;;;;;2.97;0.60;;;;;;;;;;5108954;27;20076;-76
2022/07/01 09:38:07;;;;;;;2.88;0.70;;;;;;;;;;5101582;27;20024;-76
2022/07/01 09:40:49;;;;;;;4.18;0.70;;;;;;;;;;5104322;27;20393;-76
2022/07/01 09:43:26;;;;;;;3.33;0.60;;;;;;;;;;5100534;27;20085;-76
2022/07/01 09:45:56;;;;;;;7.47;1.67;;;;;;;;;;5104757;28;20035;-76
2022/07/01 09:48:23;;;;;;;4.15;0.77;;;;;;;;;;5107771;27;20757;-76
2022/07/01 09:50:49;;;;;;;6.45;0.70;;;;;;;;;;5099519;27;20138;-76
2022/07/01 09:53:15;;;;;;;3.28;0.57;;;;;;;;;;5102249;27;20032;-77
2022/07/01 09:55:42;;;;;;;2.47;0.60;;;;;;;;;;5101838;28;20542;-76
2022/07/01 09:58:08;;;;;;;5.15;0.77;;;;;;;;;;5104802;27;20016;-76
2022/07/01 10:00:36;;;;;;;4.65;0.70;;;;;;;;;;5100819;27;20035;-76
2022/07/01 10:03:02;;;;;;;5.00;0.77;;;;;;;;;;5096923;28;20019;-76
2022/07/01 10:05:29;;;;;;;4.80;0.68;;;;;;;;;;5095868;27;20120;-76
2022/07/01 10:08:11;;;;;;;7.75;1.40;;;;;;;;;;5099691;27;20949;-76
2022/07/01 10:10:37;;;;;;;;;;;;;;;;;;5103656;27;20059;-76
2022/07/01 10:13:03;;;;;;;2.10;0.60;;;;;;;;;;5098096;27;20000;-76
2022/07/01 10:15:30;;;;;;;1.67;0.60;;;;;;;;;;5097657;27;20042;-76
2022/07/01 10:17:56;;;;;;;2.60;0.60;;;;;;;;;;5109368;27;20128;-76
2022/07/01 10:20:30;;;;;;;1.50;0.50;;;;;;;;;;5094523;28;20561;-76
2022/07/01 10:23:02;;;;;;;1.15;0.45;;;;;;;;;;5104453;27;20027;-76
2022/07/01 10:25:33;;;;;;;3.15;0.50;;;;;;;;;;5106854;27;20038;-76
2022/07/01 10:28:16;;;;;;;1.27;0.50;;;;;;;;;;5102686;28;20050;-76
2022/07/01 10:31:01;;;;;;;1.42;0.40;;;;;;;;;;5101091;28;20068;-77
2022/07/01 10:33:28;;;;;;;2.45;0.63;;;;;;;;;;5102816;28;20023;-76
2022/07/01 10:35:54;;;;;;;2.65;0.50;;;;;;;;;;5098577;28;20051;-76
2022/07/01 10:38:20;;;;;;;4.10;0.65;;;;;;;;;;5102102;28;20035;-77
2022/07/01 10:40:48;;;;;;;2.85;0.60;;;;;;;;;;5092724;28;20040;-76
2022/07/01 10:43:18;;;;;;;2.13;0.68;;;;;;;;;;5102825;28;20028;-76
2022/07/01 10:45:45;;;;;;;5.47;0.73;;;;;;;;;;5101423;28;20036;-76
2022/07/01 10:48:20;;;;;;;1.20;0.40;;;;;;;;;;5103630;28;20773;-76
2022/07/01 10:50:47;;;;;;;2.83;0.45;;;;;;;;;;5097785;28;20084;-76
2022/07/01 10:53:14;;;;;;;6.25;0.60;;;;;;;;;;5099060;28;20023;-76
2022/07/01 10:55:53;;;;;;;1.20;0.35;;;;;;;;;;5092660;28;20036;-76
2022/07/01 10:58:20;;;;;;;4.50;0.60;;;;;;;;;;5104690;28;20093;-76
2022/07/01 11:00:51;;;;;;;0.75;0.40;;;;;;;;;;5102259;28;20382;-77
2022/07/01 11:03:18;;;;;;;1.90;0.50;;;;;;;;;;5094750;28;20028;-76
2022/07/01 11:05:45;;;;;;;3.10;0.63;;;;;;;;;;5096061;28;20463;-77
2022/07/01 11:08:11;;;;;;;1.58;0.38;;;;;;;;;;5096763;28;20228;-76
2022/07/01 11:10:38;;;;;;;2.00;0.30;;;;;;;;;;5100892;27;20531;-76
2022/07/01 11:13:04;;;;;;;1.60;0.45;;;;;;;;;;5104971;28;20027;-76
2022/07/01 11:15:30;;;;;;;1.98;0.60;;;;;;;;;;5102476;27;20052;-77
2022/07/01 11:17:58;;;;;;;2.42;0.50;;;;;;;;;;5108417;27;20037;-76
2022/07/01 11:20:25;;;;;;;3.28;0.60;;;;;;;;;;5095373;28;20036;-76
2022/07/01 11:22:51;;;;;;;1.98;0.47;;;;;;;;;;5105199;27;20536;-77
2022/07/01 11:25:18;;;;;;;2.80;0.80;;;;;;;;;;5104603;27;20036;-77
2022/07/01 11:27:48;;;;;;;4.18;0.45;;;;;;;;;;5112554;27;20032;-77
2022/07/01 11:30:14;;;;;;;3.13;0.40;;;;;;;;;;5093547;27;20040;-76
2022/07/01 11:32:43;;;;;;;3.10;0.40;;;;;;;;;;5095525;27;20525;-77
2022/07/01 11:40:49;;;;;;;1.95;0.60;;;;;;;;;;5103023;27;20047;-77
2022/07/01 11:43:25;;;;;;;3.10;0.63;;;;;;;;;;5100555;27;20035;-77
2022/07/01 11:45:52;;;;;;;1.50;0.57;;;;;;;;;;5104849;27;20036;-77
2022/07/01 11:48:33;;;;;;;1.38;0.60;;;;;;;;;;5109761;27;20064;-77
2022/07/01 11:51:00;;;;;;;1.30;0.40;;;;;;;;;;5095192;27;20081;-77
2022/07/01 11:53:26;;;;;;;1.23;0.30;;;;;;;;;;5100144;27;20111;-77
2022/07/01 11:55:52;;;;;;;2.55;0.43;;;;;;;;;;5105703;27;20625;-77
2022/07/01 11:58:18;;;;;;;1.65;0.50;;;;;;;;;;5100516;27;20027;-76
2022/07/01 12:00:44;;;;;;;1.88;0.40;;;;;;;;;;5102373;27;20035;-77
2022/07/01 12:03:10;;;;;;;1.20;0.40;;;;;;;;;;5103148;27;20027;-76
2022/07/01 12:05:37;;;;;;;1.50;0.40;;;;;;;;;;5102585;27;20051;-77
2022/07/01 12:08:03;;;;;;;1.17;0.43;;;;;;;;;;5099122;27;20058;-77
2022/07/01 12:10:30;;;;;;;2.38;0.40;;;;;;;;;;5101792;27;20032;-77
2022/07/01 12:12:56;;;;;;;1.38;0.40;;;;;;;;;;5106132;27;20032;-77
2022/07/01 12:15:23;;;;;;;4.75;0.52;;;;;;;;;;5104515;27;20042;-77
2022/07/01 12:17:49;;;;;;;1.90;0.68;;;;;;;;;;5097521;27;20028;-77
2022/07/01 12:20:15;;;;;;;0.98;0.40;;;;;;;;;;5101405;28;20058;-77
2022/07/01 12:22:41;;;;;;;3.08;0.38;;;;;;;;;;5101400;27;21037;-77
2022/07/01 12:25:09;;;;;;;1.10;0.20;;;;;;;;;;5101657;27;20031;-77
2022/07/01 12:27:38;;;;;;;1.30;0.40;;;;;;;;;;5101171;27;20051;-77
2022/07/01 12:30:04;;;;;;;0.77;0.30;;;;;;;;;;5111954;27;20019;-77
2022/07/01 12:32:31;;;;;;;4.57;0.50;;;;;;;;;;5099257;27;20127;-77
2022/07/01 12:34:58;;;;;;;1.38;0.52;;;;;;;;;;5103373;27;20064;-77
2022/07/01 12:37:34;;;;;;;2.33;0.80;;;;;;;;;;5099747;27;20043;-76
2022/07/01 12:40:20;;;;;;;1.90;0.60;;;;;;;;;;5096316;28;20024;-76
2022/07/01 12:42:46;;;;;;;2.33;0.50;;;;;;;;;;5100932;27;20040;-76
2022/07/01 12:45:14;;;;;;;4.32;1.02;;;;;;;;;;5101496;28;20027;-76
2022/07/01 12:47:41;;;;;;;1.70;0.52;;;;;;;;;;5106011;27;20106;-77
2022/07/01 12:50:17;;;;;;;1.80;0.40;;;;;;;;;;5104850;27;20031;-76
2022/07/01 12:52:46;;;;;;;2.17;0.45;;;;;;;;;;5097350;28;20455;-77
2022/07/01 12:55:16;;;;;;;0.75;0.30;;;;;;;;;;5102503;27;20528;-77
2022/07/01 12:57:42;;;;;;;0.47;0.28;;;;;;;;;;5096209;27;20035;-77
2022/07/01 13:00:09;;;;;;;3.00;0.50;;;;;;;;;;5107159;27;20560;-77
2022/07/01 13:02:35;;;;;;;2.17;0.52;;;;;;;;;;5099843;27;20081;-76
2022/07/01 13:05:01;;;;;;;1.13;0.40;;;;;;;;;;5105697;27;20394;-76
2022/07/01 13:07:27;;;;;;;1.58;0.30;;;;;;;;;;5102244;27;20032;-76
2022/07/01 13:09:53;;;;;;;1.42;0.30;;;;;;;;;;5098043;27;20028;-77
2022/07/01 13:12:19;;;;;;;4.10;0.50;;;;;;;;;;5102129;27;20036;-77
2022/07/01 13:14:45;;;;;;;0.93;0.30;;;;;;;;;;5109704;27;20016;-77
2022/07/01 13:17:11;;;;;;;2.03;0.68;;;;;;;;;;5098594;28;20050;-77
2022/07/01 13:19:37;;;;;;;2.22;0.40;;;;;;;;;;5109088;27;20031;-77
2022/07/01 13:22:03;;;;;;;1.60;0.73;;;;;;;;;;5101356;27;20043;-77
2022/07/01 13:24:29;;;;;;;1.20;0.40;;;;;;;;;;5096069;28;20374;-77
2022/07/01 13:26:56;;;;;;;2.08;0.43;;;;;;;;;;5096456;27;20043;-77
2022/07/01 13:29:22;;;;;;;0.73;0.30;;;;;;;;;;5106882;27;20027;-77
2022/07/01 13:31:48;;;;;;;0.90;0.30;;;;;;;;;;5105181;28;20028;-77
2022/07/01 13:34:14;;;;;;;0.43;0.30;;;;;;;;;;5106071;27;20027;-77
2022/07/01 13:36:40;;;;;;;0.88;0.40;;;;;;;;;;5098603;27;20786;-77
2022/07/01 13:39:06;;;;;;;1.90;0.50;;;;;;;;;;5098455;27;20038;-77
2022/07/01 13:41:33;;;;;;;3.75;0.50;;;;;;;;;;5095049;27;20040;-77
2022/07/01 13:43:59;;;;;;;1.08;0.30;;;;;;;;;;5097913;27;20041;-77
2022/07/01 13:46:25;;;;;;;1.20;0.40;;;;;;;;;;5103811;27;20576;-77
2022/07/01 13:48:51;;;;;;;0.90;0.32;;;;;;;;;;5090879;28;20059;-77
2022/07/01 13:51:17;;;;;;;0.40;0.25;;;;;;;;;;5105284;27;20071;-77
2022/07/01 13:53:43;;;;;;;1.08;0.47;;;;;;;;;;5102591;28;20030;-77
2022/07/01 13:56:09;;;;;;;1.27;0.40;;;;;;;;;;5099845;27;20035;-77
2022/07/01 13:58:35;;;;;;;1.25;0.30;;;;;;;;;;5102445;27;20394;-76
2022/07/01 14:01:01;;;;;;;1.40;0.45;;;;;;;;;;5102918;27;20036;-77
2022/07/01 14:03:28;;;;;;;1.55;0.38;;;;;;;;;;5094040;28;20031;-77
2022/07/01 14:05:54;;;;;;;1.05;0.40;;;;;;;;;;5097818;28;20482;-77
2022/07/01 14:08:20;;;;;;;1.50;0.45;;;;;;;;;;5093258;27;20042;-77
2022/07/01 14:10:46;;;;;;;0.75;0.40;;;;;;;;;;5102893;27;20040;-77
2022/07/01 14:13:12;;;;;;;0.52;0.20;;;;;;;;;;5102981;27;20059;-77
2022/07/01 14:15:38;;;;;;;1.20;0.40;;;;;;;;;;5096542;27;20089;-77
2022/07/01 14:18:04;;;;;;;1.67;0.55;;;;;;;;;;5092152;28;20537;-76
2022/07/01 14:20:31;;;;;;;2.50;0.50;;;;;;;;;;5101622;28;20486;-77
2022/07/01 14:22:57;;;;;;;1.05;0.35;;;;;;;;;;5107129;28;20114;-77
2022/07/01 14:25:23;;;;;;;1.88;0.60;;;;;;;;;;5100203;28;20039;-77
2022/07/01 14:27:49;;;;;;;2.25;0.47;;;;;;;;;;5102782;27;20082;-77
2022/07/01 14:30:16;;;;;;;1.63;0.30;;;;;;;;;;5107360;28;20590;-77
2022/07/01 14:32:42;;;;;;;1.08;0.25;;;;;;;;;;5100579;28;20827;-77
2022/07/01 14:35:09;;;;;;;2.65;0.40;;;;;;;;;;5098318;28;20028;-77
2022/07/01 14:37:37;;;;;;;0.85;0.30;;;;;;;;;;5108627;28;20051;-77
2022/07/01 14:40:03;;;;;;;1.45;0.32;;;;;;;;;;5106221;27;20519;-77
2022/07/01 14:42:29;;;;;;;1.33;0.60;;;;;;;;;;5103155;28;20063;-77
2022/07/01 14:44:56;;;;;;;0.63;0.30;;;;;;;;;;5104466;27;20065;-77
2022/07/01 14:47:22;;;;;;;1.55;0.38;;;;;;;;;;5100684;27;20119;-77
2022/07/01 14:49:50;;;;;;;1.02;0.43;;;;;;;;;;5106480;27;20061;-77
2022/07/01 14:52:20;;;;;;;2.90;0.73;;;;;;;;;;5108123;27;20031;-77
2022/07/01 14:54:46;;;;;;;2.00;0.68;;;;;;;;;;5100069;27;20515;-77
2022/07/01 14:57:12;;;;;;;1.35;0.40;;;;;;;;;;5104071;27;20826;-76
2022/07/01 14:59:38;;;;;;;1.25;0.40;;;;;;;;;;5103920;27;20059;-77
2022/07/01 15:02:04;;;;;;;0.90;0.38;;;;;;;;;;5102025;27;20081;-77
2022/07/01 15:04:31;;;;;;;1.10;0.40;;;;;;;;;;5108902;27;20398;-77